Time;durP1;ratioP1;P1;durP2;ratioP2;P2;SDS_P1;SDS_P2;PMS_P1;PMS_P2;Temp;Humidity;BMP_temperature;BMP_pressure;BME280_temperature;BME280_humidity;BME280_pressure;Samples;Min_cycle;Max_cycle;Signal;HPM_P1;HPM_P2
2022/08/26 00:01:50;;;;;;;5.60;1.83;;;;;;;19.88;nan;101491.63;5033023;28;20489;-60
2022/08/26 00:04:15;;;;;;;6.38;1.30;;;;;;;19.87;nan;101481.03;5032975;28;20040;-58
2022/08/26 00:06:41;;;;;;;4.93;1.25;;;;;;;19.89;nan;101484.47;5015618;28;20120;-62
2022/08/26 00:09:06;;;;;;;3.50;1.33;;;;;;;19.85;nan;101483.78;5032775;28;20409;-58
2022/08/26 00:11:31;;;;;;;4.80;1.45;;;;;;;19.86;nan;101485.50;5032690;28;20116;-59
2022/08/26 00:13:58;;;;;;;6.30;1.50;;;;;;;19.71;nan;101461.53;5032771;28;20489;-60
2022/08/26 00:16:24;;;;;;;6.85;1.33;;;;;;;19.88;nan;101482.75;5032746;28;20076;-56
2022/08/26 00:18:50;;;;;;;4.95;1.42;;;;;;;19.56;nan;101441.94;5032611;28;20159;-59
2022/08/26 00:21:15;;;;;;;6.28;1.42;;;;;;;19.81;nan;101481.41;5033028;28;20120;-60
2022/08/26 00:23:40;;;;;;;6.68;1.67;;;;;;;19.82;nan;101485.81;5032616;28;20041;-63
2022/08/26 00:26:06;;;;;;;5.05;1.70;;;;;;;19.82;nan;101489.31;5032729;28;20045;-61
2022/08/26 00:28:32;;;;;;;3.47;1.17;;;;;;;19.72;nan;101477.47;5032413;28;20057;-60
2022/08/26 00:30:58;;;;;;;6.75;1.20;;;;;;;19.57;nan;101433.00;5015151;28;20026;-61
2022/08/26 00:33:23;;;;;;;5.63;1.90;;;;;;;19.88;nan;101483.59;5032401;28;20034;-58
2022/08/26 00:35:49;;;;;;;6.20;1.80;;;;;;;19.63;nan;101445.97;5031109;28;20037;-60
2022/08/26 00:38:15;;;;;;;4.88;1.50;;;;;;;19.84;nan;101495.44;5032337;28;20037;-59
2022/08/26 00:40:46;;;;;;;9.40;2.03;;;;;;;19.67;nan;101472.41;5032650;28;20034;-60
2022/08/26 00:43:11;;;;;;;7.65;1.73;;;;;;;19.56;nan;101447.28;5032143;28;20457;-61
2022/08/26 00:45:41;;;;;;;5.97;2.15;;;;;;;19.65;nan;101455.63;5032414;28;20037;-61
2022/08/26 00:48:08;;;;;;;5.55;1.48;;;;;;;19.81;nan;101498.31;5014595;28;20029;-61
2022/08/26 00:50:37;;;;;;;5.40;1.50;;;;;;;19.80;nan;101493.03;5031070;28;20116;-61
2022/08/26 00:53:20;;;;;;;5.50;1.45;;;;;;;19.65;nan;101460.97;5014936;28;20102;-60
2022/08/26 00:55:48;;;;;;;4.07;1.65;;;;;;;19.82;nan;101500.00;5031223;28;20036;-60
2022/08/26 00:58:13;;;;;;;5.72;1.77;;;;;;;19.40;nan;101441.16;5032170;28;20164;-60
2022/08/26 01:00:39;;;;;;;2.90;1.20;;;;;;;19.72;nan;101504.19;5014486;28;20485;-62
2022/08/26 01:03:04;;;;;;;7.55;1.80;;;;;;;19.69;nan;101495.50;5014642;28;20532;-61
2022/08/26 01:05:30;;;;;;;3.53;1.65;;;;;;;19.35;nan;101444.06;5031013;28;20037;-61
2022/08/26 01:07:55;;;;;;;3.67;1.20;;;;;;;19.61;nan;101494.13;5032128;28;20392;-61
2022/08/26 01:10:24;;;;;;;4.95;1.85;;;;;;;19.39;nan;101456.31;5032028;28;20033;-59
2022/08/26 01:13:02;;;;;;;5.13;1.38;;;;;;;19.38;nan;101451.88;5031661;28;20080;-59
2022/08/26 01:15:36;;;;;;;6.78;1.33;;;;;;;19.35;nan;101446.72;5030771;28;20029;-60
2022/08/26 01:18:05;;;;;;;8.65;2.00;;;;;;;19.48;nan;101474.47;5030057;28;20125;-61
2022/08/26 01:20:44;;;;;;;3.25;1.40;;;;;;;19.55;nan;101486.50;5014478;28;20108;-60
2022/08/26 01:23:10;;;;;;;3.58;1.50;;;;;;;19.52;nan;101493.84;5031666;28;20049;-62
2022/08/26 01:25:42;;;;;;;4.63;1.50;;;;;;;19.49;nan;101488.69;5030444;28;20037;-64
2022/08/26 01:28:13;;;;;;;5.57;1.40;;;;;;;19.48;nan;101486.94;5014418;28;20079;-61
2022/08/26 01:30:38;;;;;;;;;;;;;;;19.47;nan;101491.41;5014553;28;20036;-61
2022/08/26 01:33:06;;;;;;;6.78;1.80;;;;;;;19.41;nan;101478.44;5014136;28;19909;-60
2022/08/26 01:35:31;;;;;;;4.05;1.70;;;;;;;19.34;nan;101457.50;5014168;28;20075;-61
2022/08/26 01:37:57;;;;;;;6.72;1.30;;;;;;;19.22;nan;101450.22;5031848;28;20041;-60
2022/08/26 01:40:27;;;;;;;6.63;1.80;;;;;;;19.48;nan;101508.31;5031821;28;20067;-61
2022/08/26 01:42:53;;;;;;;6.55;1.70;;;;;;;19.47;nan;101503.91;5031011;28;20120;-60
2022/08/26 01:45:22;;;;;;;8.38;1.63;;;;;;;19.42;nan;101504.19;5031851;28;20128;-59
2022/08/26 01:47:48;;;;;;;3.85;1.35;;;;;;;19.37;nan;101490.22;5031335;28;20037;-60
2022/08/26 01:50:18;;;;;;;7.07;1.55;;;;;;;19.36;nan;101504.50;5034580;28;20025;-59
2022/08/26 01:52:45;;;;;;;7.03;1.17;;;;;;;19.17;nan;101470.97;5035544;28;20120;-63
2022/08/26 01:55:14;;;;;;;5.57;1.50;;;;;;;19.08;nan;101457.22;5017575;28;20443;-60
2022/08/26 01:57:40;;;;;;;8.23;1.58;;;;;;;19.34;nan;101516.22;5035126;28;20056;-60
2022/08/26 02:00:09;;;;;;;5.40;1.65;;;;;;;19.07;nan;101466.16;5017896;28;20448;-60
2022/08/26 02:02:34;;;;;;;3.35;1.20;;;;;;;19.32;nan;101499.47;5034328;28;20124;-60
2022/08/26 02:05:03;;;;;;;8.02;1.38;;;;;;;19.29;nan;101507.63;5017630;28;20125;-61
2022/08/26 02:07:29;;;;;;;6.72;1.40;;;;;;;19.05;nan;101462.75;5033633;28;20091;-60
2022/08/26 02:09:54;;;;;;;4.90;1.20;;;;;;;19.01;nan;101469.19;5033762;28;20042;-61
2022/08/26 02:12:20;;;;;;;7.45;1.20;;;;;;;18.96;nan;101459.72;5035096;28;20141;-61
2022/08/26 02:14:50;;;;;;;3.47;1.30;;;;;;;19.03;nan;101464.63;5017479;28;20057;-60
2022/08/26 02:17:17;;;;;;;4.15;1.60;;;;;;;19.20;nan;101501.03;5035134;28;20044;-61
2022/08/26 02:19:45;;;;;;;5.32;1.30;;;;;;;19.14;nan;101496.03;5017396;28;20581;-61
2022/08/26 02:22:14;;;;;;;5.10;1.20;;;;;;;19.02;nan;101467.38;5017223;28;20033;-60
2022/08/26 02:24:53;;;;;;;8.63;1.83;;;;;;;18.82;nan;101441.00;5017427;28;20041;-59
2022/08/26 02:27:27;;;;;;;3.30;1.10;;;;;;;19.14;nan;101505.84;5034941;28;20544;-61
2022/08/26 02:29:56;;;;;;;3.60;1.27;;;;;;;19.11;nan;101506.88;5034893;28;20035;-59
2022/08/26 02:32:22;;;;;;;6.25;1.38;;;;;;;19.06;nan;101498.25;5016642;28;20034;-61
2022/08/26 02:34:48;;;;;;;3.65;1.15;;;;;;;19.10;nan;101507.81;5034796;28;20084;-59
2022/08/26 02:37:13;;;;;;;3.65;1.30;;;;;;;19.12;nan;101513.91;5034480;28;20099;-59
2022/08/26 02:39:40;;;;;;;4.68;1.33;;;;;;;18.83;nan;101472.03;5033516;28;20033;-58
2022/08/26 02:42:06;;;;;;;4.60;1.15;;;;;;;19.10;nan;101506.03;5034860;28;20061;-58
2022/08/26 02:44:32;;;;;;;4.55;1.15;;;;;;;19.12;nan;101516.59;5034636;28;20068;-60
2022/08/26 02:46:57;;;;;;;2.88;1.00;;;;;;;18.90;nan;101486.75;5034376;28;20095;-61
2022/08/26 02:49:23;;;;;;;2.42;1.00;;;;;;;18.82;nan;101467.66;5033137;28;20029;-61
2022/08/26 02:51:49;;;;;;;7.93;1.20;;;;;;;19.09;nan;101509.63;5034442;28;20505;-59
2022/08/26 02:54:15;;;;;;;7.38;1.20;;;;;;;19.05;nan;101499.22;5034483;28;20436;-58
2022/08/26 02:56:41;;;;;;;8.00;1.17;;;;;;;18.83;nan;101480.91;5016845;28;20041;-60
2022/08/26 02:59:07;;;;;;;3.45;1.08;;;;;;;19.00;nan;101510.16;5032893;28;20033;-61
2022/08/26 03:01:34;;;;;;;6.25;1.65;;;;;;;18.93;nan;101499.91;5034172;28;20049;-60
2022/08/26 03:04:01;;;;;;;5.75;1.08;;;;;;;19.01;nan;101509.22;5034246;28;20477;-61
2022/08/26 03:06:27;;;;;;;5.85;1.10;;;;;;;19.01;nan;101509.22;5034346;28;20065;-60
2022/08/26 03:08:53;;;;;;;4.63;1.10;;;;;;;19.02;nan;101510.94;5016430;28;20057;-60
2022/08/26 03:11:18;;;;;;;3.67;0.90;;;;;;;18.75;nan;101458.28;5033976;28;20029;-60
2022/08/26 03:13:45;;;;;;;4.18;1.20;;;;;;;18.84;nan;101468.44;5033980;28;20061;-60
2022/08/26 03:16:12;;;;;;;4.70;1.00;;;;;;;18.86;nan;101469.19;5016198;28;20029;-59
2022/08/26 03:18:37;;;;;;;4.35;1.30;;;;;;;19.10;nan;101510.50;5016250;28;20037;-59
2022/08/26 03:21:11;;;;;;;3.75;1.63;;;;;;;19.11;nan;101512.22;5033943;28;20408;-58
2022/08/26 03:23:39;;;;;;;5.05;1.17;;;;;;;19.09;nan;101506.09;5033895;28;20036;-61
2022/08/26 03:26:05;;;;;;;3.45;1.00;;;;;;;18.81;nan;101445.47;5032507;28;20623;-63
2022/08/26 03:28:31;;;;;;;2.40;0.75;;;;;;;18.82;nan;101451.66;5016106;28;20389;-57
2022/08/26 03:30:57;;;;;;;4.13;0.98;;;;;;;19.07;nan;101497.31;5033607;28;20037;-61
2022/08/26 03:33:23;;;;;;;5.03;1.17;;;;;;;19.08;nan;101481.25;5033490;28;20026;-59
2022/08/26 03:35:50;;;;;;;2.42;0.90;;;;;;;19.03;nan;101483.28;5032362;28;20057;-62
2022/08/26 03:38:15;;;;;;;5.72;1.38;;;;;;;19.06;nan;101484.91;5033794;28;20487;-59
2022/08/26 03:40:41;;;;;;;2.40;0.88;;;;;;;18.84;nan;101441.75;5033435;28;20049;-61
2022/08/26 03:43:08;;;;;;;4.60;0.85;;;;;;;19.00;nan;101474.63;5033340;28;20087;-62
2022/08/26 03:45:34;;;;;;;4.00;1.02;;;;;;;19.14;nan;101490.69;5033058;28;20542;-63
2022/08/26 03:48:00;;;;;;;3.47;1.02;;;;;;;18.89;nan;101445.88;5031952;28;20060;-59
2022/08/26 03:50:26;;;;;;;3.00;0.90;;;;;;;18.84;nan;101439.94;5015909;28;20092;-61
2022/08/26 03:52:52;;;;;;;7.38;1.38;;;;;;;19.08;nan;101483.03;5033320;28;20029;-60
2022/08/26 03:55:18;;;;;;;4.60;1.08;;;;;;;18.80;nan;101450.88;5033180;28;20040;-59
2022/08/26 03:57:43;;;;;;;5.80;1.20;;;;;;;19.03;nan;101495.81;5033017;28;20072;-59
2022/08/26 04:00:15;;;;;;;4.80;1.10;;;;;;;18.93;nan;101481.25;5032863;28;20182;-60
2022/08/26 04:02:45;;;;;;;3.15;0.70;;;;;;;18.99;nan;101488.91;5015432;28;20112;-59
2022/08/26 04:05:14;;;;;;;4.93;1.13;;;;;;;19.02;nan;101483.41;5032859;28;20030;-58
2022/08/26 04:07:41;;;;;;;2.80;0.80;;;;;;;19.07;nan;101489.31;5015439;28;20036;-62
2022/08/26 04:10:08;;;;;;;3.85;1.15;;;;;;;19.07;nan;101470.63;5032722;28;20056;-61
2022/08/26 04:12:35;;;;;;;3.10;0.75;;;;;;;19.09;nan;101469.59;5032191;28;20115;-61
2022/08/26 04:15:00;;;;;;;4.15;1.45;;;;;;;19.18;nan;101483.34;5031597;28;20033;-62
2022/08/26 04:17:26;;;;;;;4.53;0.70;;;;;;;19.20;nan;101486.81;5032993;28;20396;-61
2022/08/26 04:19:54;;;;;;;5.20;1.35;;;;;;;19.14;nan;101471.16;5032544;28;20461;-59
2022/08/26 04:22:20;;;;;;;4.55;1.25;;;;;;;19.24;nan;101491.00;5032775;28;20041;-56
2022/08/26 04:24:45;;;;;;;5.45;1.35;;;;;;;19.17;nan;101476.31;5037180;28;20036;-60
2022/08/26 04:27:10;;;;;;;2.92;1.05;;;;;;;18.96;nan;101438.38;5052343;28;20468;-60
2022/08/26 04:29:37;;;;;;;5.13;1.30;;;;;;;19.00;nan;101442.63;5049446;28;20036;-61
2022/08/26 04:32:03;;;;;;;5.57;1.25;;;;;;;19.00;nan;101446.13;5051959;28;20060;-59
2022/08/26 04:34:28;;;;;;;2.67;0.77;;;;;;;19.26;nan;101490.00;5034189;28;20053;-61
2022/08/26 04:36:54;;;;;;;5.22;1.00;;;;;;;19.22;nan;101476.91;5018872;28;20088;-60
2022/08/26 04:39:20;;;;;;;3.90;1.10;;;;;;;19.08;nan;101461.69;5031790;28;20033;-61
2022/08/26 04:41:47;;;;;;;3.10;0.90;;;;;;;19.25;nan;101485.59;5031629;28;20044;-60
2022/08/26 04:44:13;;;;;;;3.13;0.90;;;;;;;19.29;nan;101500.50;5013751;28;20432;-62
2022/08/26 04:46:39;;;;;;;4.78;1.15;;;;;;;19.11;nan;101458.84;5014030;28;20484;-61
2022/08/26 04:49:07;;;;;;;4.97;1.15;;;;;;;19.09;nan;101466.94;5032529;28;20039;-60
2022/08/26 04:51:36;;;;;;;8.07;1.50;;;;;;;19.35;nan;101504.63;5014616;28;20079;-60
2022/08/26 04:54:02;;;;;;;8.85;1.65;;;;;;;19.34;nan;101516.22;5032201;28;20064;-60
2022/08/26 04:56:30;;;;;;;5.53;1.02;;;;;;;19.08;nan;101464.38;5014297;28;20045;-63
2022/08/26 04:58:55;;;;;;;3.03;0.95;;;;;;;19.31;nan;101509.25;5032425;28;20029;-61
2022/08/26 05:01:21;;;;;;;7.13;1.60;;;;;;;19.23;nan;101495.50;5031989;28;20045;-61
2022/08/26 05:03:47;;;;;;;6.00;1.33;;;;;;;19.32;nan;101512.81;5030729;28;20485;-60
2022/08/26 05:06:13;;;;;;;5.32;1.58;;;;;;;19.17;nan;101493.19;5032034;28;20044;-59
2022/08/26 05:08:38;;;;;;;4.15;1.42;;;;;;;19.29;nan;101523.66;5014492;28;20033;-60
2022/08/26 05:11:05;;;;;;;5.28;1.20;;;;;;;19.13;nan;101491.63;5025840;28;20048;-59
2022/08/26 05:13:30;;;;;;;5.53;1.27;;;;;;;19.14;nan;101489.84;5033531;28;20041;-62
2022/08/26 05:15:56;;;;;;;6.72;1.17;;;;;;;19.35;nan;101516.13;5042564;28;20038;-59
2022/08/26 05:18:22;;;;;;;4.25;0.90;;;;;;;19.05;nan;101468.06;5033231;28;20029;-63
2022/08/26 05:20:52;;;;;;;4.82;1.13;;;;;;;19.38;nan;101520.47;5033465;28;20542;-59
2022/08/26 05:23:17;;;;;;;4.78;1.20;;;;;;;19.36;nan;101515.19;5031366;28;20033;-60
2022/08/26 05:25:46;;;;;;;5.88;1.45;;;;;;;19.38;nan;101517.78;5048220;28;20043;-61
2022/08/26 05:28:14;;;;;;;4.95;0.80;;;;;;;19.35;nan;101518.78;5037476;28;20119;-58
2022/08/26 05:30:39;;;;;;;6.80;0.90;;;;;;;19.33;nan;101526.03;5054852;28;20467;-59
2022/08/26 05:33:06;;;;;;;5.80;1.00;;;;;;;19.13;nan;101498.78;5055277;28;20113;-60
2022/08/26 05:35:32;;;;;;;4.07;1.67;;;;;;;19.33;nan;101535.84;5052687;28;20033;-62
2022/08/26 05:38:02;;;;;;;2.83;0.90;;;;;;;19.36;nan;101541.03;5048287;28;20079;-56
2022/08/26 05:40:30;;;;;;;4.50;1.10;;;;;;;19.17;nan;101498.53;5033850;28;20038;-57
2022/08/26 05:42:55;;;;;;;6.82;1.02;;;;;;;19.40;nan;101534.59;5053323;28;20476;-60
2022/08/26 05:45:24;;;;;;;7.05;1.20;;;;;;;19.47;nan;101530.59;5055176;28;20047;-62
2022/08/26 05:47:50;;;;;;;8.15;1.38;;;;;;;19.23;nan;101495.50;5054469;28;20395;-61
2022/08/26 05:50:20;;;;;;;6.03;1.60;;;;;;;19.40;nan;101527.47;5053922;28;20033;-57
2022/08/26 05:52:46;;;;;;;5.88;1.17;;;;;;;19.38;nan;101521.28;5054473;28;20035;-63
2022/08/26 05:55:11;;;;;;;6.68;0.93;;;;;;;19.46;nan;101536.91;5053580;28;20033;-60
2022/08/26 05:57:37;;;;;;;3.50;0.80;;;;;;;19.50;nan;101546.44;5054790;28;20036;-59
2022/08/26 06:00:03;;;;;;;4.65;0.88;;;;;;;19.26;nan;101515.81;5045343;28;20079;-61
2022/08/26 06:02:28;;;;;;;5.63;1.52;;;;;;;19.22;nan;101503.59;5054794;28;20052;-58
2022/08/26 06:04:54;;;;;;;3.03;0.85;;;;;;;19.52;nan;101560.59;5048833;28;20480;-62
2022/08/26 06:08:09;;;;;;;4.30;1.25;;;;;;;19.50;nan;101547.31;5054066;28;20044;-62
2022/08/26 06:10:05;;;;;;;7.80;1.20;;;;;;;19.57;nan;101543.34;5053739;28;20609;-62
2022/08/26 06:12:31;;;;;;;4.32;1.10;;;;;;;19.69;nan;101547.09;5053064;28;20053;-61
2022/08/26 06:14:56;;;;;;;7.32;1.40;;;;;;;19.74;nan;101560.19;5050405;28;20040;-62
2022/08/26 06:17:21;;;;;;;6.68;0.98;;;;;;;19.67;nan;101557.03;5053420;28;20059;-61
2022/08/26 06:19:47;;;;;;;4.78;0.88;;;;;;;19.65;nan;101557.09;5034177;28;20040;-61
2022/08/26 06:25:36;;;;;;;2.85;1.00;;;;;;;19.25;nan;101479.41;5033212;28;20431;-63
2022/08/26 06:27:41;;;;;;;5.70;1.00;;;;;;;19.65;nan;101577.59;5034843;28;20094;-62
2022/08/26 06:30:08;;;;;;;2.97;0.88;;;;;;;19.59;nan;101576.16;5034109;28;20112;-62
2022/08/26 06:32:34;;;;;;;9.35;1.25;;;;;;;19.33;nan;101544.72;5034721;28;20041;-62
2022/08/26 06:34:59;;;;;;;7.88;1.35;;;;;;;19.34;nan;101546.47;5034274;28;20296;-62
2022/08/26 06:37:24;;;;;;;5.70;1.23;;;;;;;19.56;nan;101586.16;5034823;28;20037;-62
2022/08/26 06:39:49;;;;;;;3.15;1.20;;;;;;;19.35;nan;101561.50;5033825;28;20042;-63
2022/08/26 06:42:15;;;;;;;3.90;1.00;;;;;;;19.51;nan;101577.56;5034581;28;20084;-63
2022/08/26 06:44:40;;;;;;;2.58;0.70;;;;;;;19.65;nan;101590.97;5000292;28;20075;-63
2022/08/26 06:47:06;;;;;;;3.03;1.27;;;;;;;19.60;nan;101583.22;5034132;28;20061;-62
2022/08/26 06:49:31;;;;;;;7.07;1.40;;;;;;;19.63;nan;101590.19;5034673;28;20037;-63
2022/08/26 06:51:57;;;;;;;4.00;0.88;;;;;;;19.71;nan;101597.75;5034530;28;20085;-63
2022/08/26 06:54:22;;;;;;;5.72;1.00;;;;;;;19.65;nan;101581.16;5034531;28;20033;-63
2022/08/26 06:56:48;;;;;;;7.10;1.85;;;;;;;19.70;nan;101596.91;5034178;28;20048;-62
2022/08/26 06:59:14;;;;;;;3.22;0.80;;;;;;;19.67;nan;101604.25;5034306;28;20034;-63
2022/08/26 07:01:43;;;;;;;4.97;1.33;;;;;;;19.47;nan;101589.34;5034041;28;20083;-61
2022/08/26 07:04:10;;;;;;;2.58;0.88;;;;;;;19.16;nan;101544.84;5034309;28;20032;-63
2022/08/26 07:06:38;;;;;;;2.25;0.95;;;;;;;19.12;nan;101548.63;5034089;28;20507;-60
2022/08/26 07:09:05;;;;;;;3.88;0.90;;;;;;;19.12;nan;101556.63;5015440;28;20038;-60
2022/08/26 07:11:32;;;;;;;3.20;0.80;;;;;;;19.25;nan;101588.81;5014787;28;20341;-61
2022/08/26 07:13:57;;;;;;;7.05;1.13;;;;;;;18.98;nan;101546.72;5015914;28;20056;-59
2022/08/26 07:16:24;;;;;;;4.45;1.05;;;;;;;19.25;nan;101595.03;5033743;28;20076;-61
2022/08/26 07:18:51;;;;;;;5.70;0.90;;;;;;;19.28;nan;101588.66;5032382;28;20055;-64
2022/08/26 07:21:17;;;;;;;6.45;1.42;;;;;;;19.30;nan;101606.31;5033051;28;20121;-64
2022/08/26 07:23:44;;;;;;;3.35;1.27;;;;;;;19.25;nan;101584.34;5033084;28;20124;-62
2022/08/26 07:26:18;;;;;;;8.18;1.02;;;;;;;19.13;nan;101571.69;5032815;28;20499;-62
2022/08/26 07:28:45;;;;;;;4.35;1.30;;;;;;;19.16;nan;101576.88;5032865;28;20518;-63
2022/08/26 07:31:13;;;;;;;4.10;1.17;;;;;;;19.42;nan;101602.97;5015258;28;20040;-63
2022/08/26 07:33:39;;;;;;;3.53;1.48;;;;;;;19.51;nan;101620.28;5033006;28;20037;-62
2022/08/26 07:36:05;;;;;;;2.53;0.85;;;;;;;19.29;nan;101564.56;5031498;28;20041;-64
2022/08/26 07:38:31;;;;;;;4.78;1.40;;;;;;;19.60;nan;101623.28;5032607;28;20030;-62
2022/08/26 07:40:57;;;;;;;3.55;0.98;;;;;;;19.54;nan;101596.94;5032510;28;20362;-63
2022/08/26 07:43:22;;;;;;;2.53;0.93;;;;;;;19.77;nan;101642.81;5032537;28;20068;-62
2022/08/26 07:45:48;;;;;;;6.32;1.48;;;;;;;19.53;nan;101605.03;5031927;28;20396;-63
2022/08/26 07:48:14;;;;;;;1.48;0.70;;;;;;;19.83;nan;101650.47;5032520;28;20033;-62
2022/08/26 07:50:40;;;;;;;6.38;1.23;;;;;;;19.83;nan;101654.00;5030945;28;20041;-62
2022/08/26 07:53:05;;;;;;;4.10;1.15;;;;;;;19.62;nan;101602.69;5014983;28;20133;-62
2022/08/26 07:55:31;;;;;;;2.25;0.70;;;;;;;19.57;nan;101599.44;5014526;28;20044;-63
2022/08/26 07:57:56;;;;;;;3.13;0.77;;;;;;;19.93;nan;101644.53;5032397;28;20115;-63
2022/08/26 08:00:22;;;;;;;4.30;0.73;;;;;;;20.02;nan;101654.66;5032696;28;20059;-62
2022/08/26 08:02:48;;;;;;;2.97;0.85;;;;;;;20.06;nan;101653.53;5031248;28;20034;-63
2022/08/26 08:05:15;;;;;;;4.30;0.90;;;;;;;20.11;nan;101667.47;5014253;28;20037;-62
2022/08/26 08:07:41;;;;;;;4.07;1.02;;;;;;;20.18;nan;101655.47;5031843;28;20120;-62
2022/08/26 08:10:07;;;;;;;3.70;0.80;;;;;;;20.33;nan;101655.56;5032015;28;20033;-63
2022/08/26 08:12:33;;;;;;;9.85;2.90;;;;;;;20.37;nan;101660.63;5032119;28;20485;-61
2022/08/26 08:14:58;;;;;;;3.55;1.10;;;;;;;20.52;nan;101662.38;5014082;28;20072;-63
2022/08/26 08:17:23;;;;;;;2.90;0.70;;;;;;;20.88;nan;101671.75;5031700;28;20071;-63
2022/08/26 08:19:48;;;;;;;3.28;0.70;;;;;;;20.90;nan;101677.91;5014291;28;20061;-62
2022/08/26 08:22:16;;;;;;;3.10;0.77;;;;;;;20.94;nan;101674.94;5032049;28;20473;-62
2022/08/26 08:24:41;;;;;;;1.52;0.50;;;;;;;20.97;nan;101688.13;5014046;28;20087;-62
2022/08/26 08:27:07;;;;;;;2.55;0.98;;;;;;;20.75;nan;101648.44;5031548;28;20041;-62
2022/08/26 08:29:35;;;;;;;2.22;0.60;;;;;;;21.10;nan;101686.41;5031515;28;20036;-61
2022/08/26 08:32:01;;;;;;;1.27;0.40;;;;;;;21.06;nan;101697.38;5030455;28;20029;-62
2022/08/26 08:34:27;;;;;;;1.73;0.55;;;;;;;21.02;nan;101698.53;5014049;28;20044;-63
2022/08/26 08:36:53;;;;;;;1.85;0.60;;;;;;;21.10;nan;101704.31;5031542;28;20128;-62
2022/08/26 08:39:18;;;;;;;4.95;0.70;;;;;;;20.92;nan;101657.25;5031402;28;20112;-61
2022/08/26 08:41:55;;;;;;;1.63;0.57;;;;;;;21.33;nan;101705.53;5031190;28;20400;-63
2022/08/26 08:44:23;;;;;;;5.03;1.02;;;;;;;21.65;nan;101702.53;5040557;28;20040;-61
2022/08/26 08:46:55;;;;;;;3.47;0.77;;;;;;;21.67;nan;101689.00;5050087;28;20036;-63
2022/08/26 08:49:21;;;;;;;2.10;0.57;;;;;;;21.56;nan;101688.84;5032069;28;20403;-63
2022/08/26 08:51:58;;;;;;;3.05;0.70;;;;;;;21.40;nan;101688.97;5049982;28;20036;-62
2022/08/26 08:54:25;;;;;;;2.05;0.95;;;;;;;21.29;nan;101676.28;5050714;28;20028;-63
2022/08/26 08:57:09;;;;;;;2.97;1.15;;;;;;;21.18;nan;101689.50;5050572;28;20078;-63
2022/08/26 08:59:35;;;;;;;5.88;1.00;;;;;;;21.24;nan;101694.47;5032248;28;20036;-63
2022/08/26 09:02:26;;;;;;;2.03;0.55;;;;;;;21.02;nan;101698.53;5033511;28;20040;-66
2022/08/26 09:04:57;;;;;;;;;;;;;;;20.95;nan;101703.44;5051482;28;20103;-64
2022/08/26 09:07:44;;;;;;;2.47;0.60;;;;;;;20.93;nan;101688.41;5031324;28;20272;-66
2022/08/26 09:10:37;;;;;;;4.00;0.77;;;;;;;20.90;nan;101680.59;5051314;28;20043;-63
2022/08/26 09:13:14;;;;;;;2.25;0.75;;;;;;;20.54;nan;101651.59;5026896;28;20114;-63
2022/08/26 09:15:57;;;;;;;4.68;1.00;;;;;;;20.72;nan;101686.09;5051283;28;20463;-64
2022/08/26 09:18:40;;;;;;;2.78;1.00;;;;;;;20.55;nan;101670.19;5033444;28;20279;-64
2022/08/26 09:21:09;;;;;;;6.43;1.17;;;;;;;20.52;nan;101673.06;5033194;28;20077;-65
2022/08/26 09:23:37;;;;;;;4.35;1.40;;;;;;;20.65;nan;101681.22;5050986;28;20036;-63
2022/08/26 09:26:22;;;;;;;4.43;1.20;;;;;;;20.50;nan;101658.94;5050491;28;20037;-67
2022/08/26 09:28:54;;;;;;;4.00;1.40;;;;;;;20.54;nan;101671.19;5050830;28;20166;-67
2022/08/26 09:31:31;;;;;;;2.97;1.10;;;;;;;20.62;nan;101673.38;5049303;28;20025;-66
2022/08/26 09:34:05;;;;;;;4.25;1.40;;;;;;;20.68;nan;101681.03;5049709;28;20028;-63
2022/08/26 09:37:00;;;;;;;5.95;1.50;;;;;;;20.63;nan;101672.44;5032938;28;20032;-63
2022/08/26 09:39:37;;;;;;;3.75;1.40;;;;;;;20.23;nan;101632.00;5037324;28;20045;-63
2022/08/26 09:42:05;;;;;;;2.97;1.08;;;;;;;20.33;nan;101675.13;5049266;28;20076;-62
2022/08/26 09:44:31;;;;;;;5.07;1.35;;;;;;;20.18;nan;101676.00;5050865;28;20041;-64
2022/08/26 09:47:04;;;;;;;3.88;1.42;;;;;;;20.21;nan;101674.03;5049492;28;20080;-62
2022/08/26 09:49:37;;;;;;;7.00;1.80;;;;;;;20.15;nan;101673.50;5046107;28;20037;-63
2022/08/26 09:52:20;;;;;;;3.85;1.23;;;;;;;19.91;nan;101648.22;5015162;28;20538;-61
2022/08/26 09:55:01;;;;;;;3.95;1.40;;;;;;;20.14;nan;101677.13;5030001;28;20074;-61
2022/08/26 09:57:29;;;;;;;3.97;1.13;;;;;;;20.42;nan;101698.66;5028328;28;20484;-65
2022/08/26 09:59:55;;;;;;;5.65;1.33;;;;;;;20.59;nan;101711.00;5041220;28;20067;-62
2022/08/26 10:02:32;;;;;;;5.88;1.42;;;;;;;20.44;nan;101658.44;5049097;28;20072;-63
2022/08/26 10:04:59;;;;;;;3.22;1.10;;;;;;;20.50;nan;101685.69;5043220;28;20047;-61
2022/08/26 10:07:51;;;;;;;4.15;1.20;;;;;;;20.63;nan;101693.81;5042765;28;20048;-62
2022/08/26 10:10:34;;;;;;;5.57;1.10;;;;;;;20.59;nan;101701.16;5042394;28;20081;-63
2022/08/26 10:13:11;;;;;;;4.00;1.60;;;;;;;20.55;nan;101691.59;5050687;28;20619;-63
2022/08/26 10:15:43;;;;;;;5.10;1.00;;;;;;;20.40;nan;101692.50;5031848;28;20041;-64
2022/08/26 10:18:14;;;;;;;3.85;1.20;;;;;;;20.38;nan;101653.44;5033644;28;20065;-63
2022/08/26 10:20:53;;;;;;;4.15;1.30;;;;;;;20.68;nan;101689.91;5015646;28;20048;-63
2022/08/26 10:23:24;;;;;;;3.47;1.20;;;;;;;20.92;nan;101679.53;5033185;28;20030;-63
2022/08/26 10:25:55;;;;;;;7.25;1.40;;;;;;;20.97;nan;101706.84;5015403;28;20045;-64
2022/08/26 10:28:36;;;;;;;6.68;1.40;;;;;;;20.84;nan;101684.47;5033064;28;20079;-63
2022/08/26 10:31:23;;;;;;;5.82;1.73;;;;;;;20.81;nan;101691.84;5015651;28;20033;-64
2022/08/26 10:33:48;;;;;;;4.47;1.10;;;;;;;20.68;nan;101660.50;5015549;28;20512;-64
2022/08/26 10:39:04;;;;;;;4.85;1.58;;;;;;;20.90;nan;101664.53;5018381;28;20053;-64
2022/08/26 10:41:36;;;;;;;7.88;1.50;;;;;;;20.99;nan;101710.28;5032753;28;20037;-64
2022/08/26 10:44:03;;;;;;;5.93;1.40;;;;;;;20.89;nan;101701.13;5015232;28;20392;-64
2022/08/26 10:46:58;;;;;;;6.57;1.20;;;;;;;21.04;nan;101707.34;5015120;28;20041;-63
2022/08/26 10:49:23;;;;;;;2.35;1.00;;;;;;;21.26;nan;101705.94;5015442;28;20037;-65
2022/08/26 10:52:03;;;;;;;3.05;0.95;;;;;;;21.37;nan;101717.75;5052516;28;20037;-64
2022/08/26 10:54:31;;;;;;;4.72;1.48;;;;;;;21.54;nan;101717.56;5034893;28;20428;-64
2022/08/26 10:57:19;;;;;;;5.18;1.25;;;;;;;21.41;nan;101666.59;5019575;28;20082;-65
2022/08/26 10:59:52;;;;;;;3.15;1.02;;;;;;;21.48;nan;101688.50;5036395;28;20040;-62
2022/08/26 11:02:39;;;;;;;2.75;0.82;;;;;;;21.70;nan;101718.28;5052980;28;20119;-62
2022/08/26 11:05:14;;;;;;;6.28;1.27;;;;;;;21.62;nan;101686.66;5036104;28;20044;-63
2022/08/26 11:07:40;;;;;;;5.32;1.42;;;;;;;21.84;nan;101719.13;5035303;28;20060;-64
2022/08/26 11:10:15;;;;;;;4.80;1.30;;;;;;;21.82;nan;101688.88;5053595;28;20041;-63
2022/08/26 11:12:40;;;;;;;2.28;0.90;;;;;;;22.00;nan;101719.00;5053709;28;20052;-64
2022/08/26 11:15:09;;;;;;;7.25;1.58;;;;;;;21.78;nan;101689.16;5032088;28;20110;-63
2022/08/26 11:17:43;;;;;;;4.50;1.23;;;;;;;22.21;nan;101712.19;5031886;28;20039;-63
2022/08/26 11:20:31;;;;;;;5.20;1.15;;;;;;;21.80;nan;101716.75;5053256;28;20102;-63
2022/08/26 11:23:12;;;;;;;2.47;0.93;;;;;;;21.88;nan;101725.19;5053511;28;20021;-63
2022/08/26 11:25:55;;;;;;;3.05;1.33;;;;;;;21.95;nan;101731.84;5053394;28;20112;-64
2022/08/26 11:28:34;;;;;;;6.20;1.20;;;;;;;21.88;nan;101721.63;5035547;28;20419;-64
2022/08/26 11:31:00;;;;;;;7.47;1.35;;;;;;;22.12;nan;101722.69;5053503;28;20482;-62
2022/08/26 11:34:05;;;;;;;5.45;1.17;;;;;;;22.43;nan;101733.94;5053552;28;20029;-64
2022/08/26 11:36:46;;;;;;;5.80;1.10;;;;;;;22.07;nan;101706.91;5039396;28;20138;-63
2022/08/26 11:39:30;;;;;;;3.20;0.95;;;;;;;22.05;nan;101724.91;5052987;28;20543;-63
2022/08/26 11:42:14;;;;;;;7.50;1.38;;;;;;;22.04;nan;101722.31;5051611;28;20045;-66
2022/08/26 11:44:42;;;;;;;3.70;1.10;;;;;;;21.35;nan;101690.22;5034150;28;20495;-63
2022/08/26 11:47:09;;;;;;;3.08;1.05;;;;;;;21.47;nan;101701.03;5052052;28;20043;-63
2022/08/26 11:49:36;;;;;;;2.35;1.35;;;;;;;21.44;nan;101687.84;5051875;28;20035;-65
2022/08/26 11:52:13;;;;;;;2.97;0.80;;;;;;;21.72;nan;101725.25;5046936;28;20098;-63
2022/08/26 11:54:39;;;;;;;3.33;1.10;;;;;;;21.66;nan;101728.34;5032470;28;20060;-64
2022/08/26 11:57:06;;;;;;;3.05;1.00;;;;;;;21.78;nan;101707.94;5033281;28;20439;-64